sensor_id;sensor_type;location;lat;lon;timestamp;P1;durP1;ratioP1;P2;durP2;ratioP2
8708;SDS011;4391;48.678;9.280;2023-03-24T00:00:57;3.38;;;1.40;;
8708;SDS011;4391;48.678;9.280;2023-03-24T00:03:27;4.47;;;1.52;;
8708;SDS011;4391;48.678;9.280;2023-03-24T00:05:55;4.25;;;1.40;;
8708;SDS011;4391;48.678;9.280;2023-03-24T00:08:26;5.32;;;1.63;;
8708;SDS011;4391;48.678;9.280;2023-03-24T00:10:56;5.03;;;1.60;;
8708;SDS011;4391;48.678;9.280;2023-03-24T00:13:25;4.93;;;1.48;;
8708;SDS011;4391;48.678;9.280;2023-03-24T00:15:52;4.80;;;2.00;;
8708;SDS011;4391;48.678;9.280;2023-03-24T00:18:19;5.82;;;1.75;;
8708;SDS011;4391;48.678;9.280;2023-03-24T00:20:51;4.20;;;1.52;;
8708;SDS011;4391;48.678;9.280;2023-03-24T00:23:23;5.00;;;2.00;;
8708;SDS011;4391;48.678;9.280;2023-03-24T00:25:57;5.88;;;1.88;;
8708;SDS011;4391;48.678;9.280;2023-03-24T00:28:26;4.55;;;1.92;;
8708;SDS011;4391;48.678;9.280;2023-03-24T00:30:55;4.28;;;1.52;;
8708;SDS011;4391;48.678;9.280;2023-03-24T00:33:22;4.18;;;1.55;;
8708;SDS011;4391;48.678;9.280;2023-03-24T00:35:51;4.77;;;1.70;;
8708;SDS011;4391;48.678;9.280;2023-03-24T00:38:19;4.15;;;1.73;;
8708;SDS011;4391;48.678;9.280;2023-03-24T00:40:46;5.05;;;1.70;;
8708;SDS011;4391;48.678;9.280;2023-03-24T00:43:14;4.18;;;1.60;;
8708;SDS011;4391;48.678;9.280;2023-03-24T00:45:41;4.82;;;1.58;;
8708;SDS011;4391;48.678;9.280;2023-03-24T00:48:10;3.47;;;1.30;;
8708;SDS011;4391;48.678;9.280;2023-03-24T00:50:37;5.50;;;1.67;;
8708;SDS011;4391;48.678;9.280;2023-03-24T00:53:07;3.95;;;1.45;;
8708;SDS011;4391;48.678;9.280;2023-03-24T00:55:34;5.15;;;1.70;;
8708;SDS011;4391;48.678;9.280;2023-03-24T00:58:02;3.88;;;1.48;;
8708;SDS011;4391;48.678;9.280;2023-03-24T01:00:29;5.57;;;1.60;;
8708;SDS011;4391;48.678;9.280;2023-03-24T01:02:56;4.88;;;1.80;;
8708;SDS011;4391;48.678;9.280;2023-03-24T01:05:27;3.55;;;1.55;;
8708;SDS011;4391;48.678;9.280;2023-03-24T01:07:56;6.00;;;1.83;;
8708;SDS011;4391;48.678;9.280;2023-03-24T01:10:28;5.85;;;1.77;;
8708;SDS011;4391;48.678;9.280;2023-03-24T01:12:58;3.53;;;1.47;;
8708;SDS011;4391;48.678;9.280;2023-03-24T01:15:26;4.53;;;1.70;;
8708;SDS011;4391;48.678;9.280;2023-03-24T01:17:55;4.65;;;1.80;;
8708;SDS011;4391;48.678;9.280;2023-03-24T01:20:22;5.38;;;1.70;;
8708;SDS011;4391;48.678;9.280;2023-03-24T01:22:49;3.83;;;1.60;;
8708;SDS011;4391;48.678;9.280;2023-03-24T01:25:17;4.53;;;1.40;;
8708;SDS011;4391;48.678;9.280;2023-03-24T01:27:48;6.57;;;1.80;;
8708;SDS011;4391;48.678;9.280;2023-03-24T01:30:17;3.95;;;1.70;;
8708;SDS011;4391;48.678;9.280;2023-03-24T01:32:45;4.60;;;1.95;;
8708;SDS011;4391;48.678;9.280;2023-03-24T01:35:12;4.43;;;1.75;;
8708;SDS011;4391;48.678;9.280;2023-03-24T01:37:40;4.57;;;2.10;;
8708;SDS011;4391;48.678;9.280;2023-03-24T01:40:07;5.40;;;1.65;;
8708;SDS011;4391;48.678;9.280;2023-03-24T01:42:38;4.55;;;1.60;;
8708;SDS011;4391;48.678;9.280;2023-03-24T01:48:10;5.07;;;1.67;;
8708;SDS011;4391;48.678;9.280;2023-03-24T01:50:39;4.23;;;1.70;;
8708;SDS011;4391;48.678;9.280;2023-03-24T01:53:09;4.22;;;1.67;;
8708;SDS011;4391;48.678;9.280;2023-03-24T01:55:36;4.82;;;1.58;;
8708;SDS011;4391;48.678;9.280;2023-03-24T01:58:03;4.22;;;1.60;;
8708;SDS011;4391;48.678;9.280;2023-03-24T02:00:31;5.82;;;1.77;;
8708;SDS011;4391;48.678;9.280;2023-03-24T02:03:02;3.80;;;1.33;;
8708;SDS011;4391;48.678;9.280;2023-03-24T02:05:34;4.20;;;1.90;;
8708;SDS011;4391;48.678;9.280;2023-03-24T02:08:05;4.75;;;1.80;;
8708;SDS011;4391;48.678;9.280;2023-03-24T02:10:36;5.70;;;2.10;;
8708;SDS011;4391;48.678;9.280;2023-03-24T02:13:04;4.78;;;2.00;;
8708;SDS011;4391;48.678;9.280;2023-03-24T02:15:32;8.17;;;1.83;;
8708;SDS011;4391;48.678;9.280;2023-03-24T02:18:10;6.28;;;2.00;;
8708;SDS011;4391;48.678;9.280;2023-03-24T02:20:56;7.45;;;1.83;;
8708;SDS011;4391;48.678;9.280;2023-03-24T02:26:54;5.70;;;1.83;;
8708;SDS011;4391;48.678;9.280;2023-03-24T02:29:36;5.30;;;1.80;;
8708;SDS011;4391;48.678;9.280;2023-03-24T02:32:32;4.40;;;1.70;;
8708;SDS011;4391;48.678;9.280;2023-03-24T02:35:32;4.47;;;1.48;;
8708;SDS011;4391;48.678;9.280;2023-03-24T02:38:22;9.15;;;1.65;;
8708;SDS011;4391;48.678;9.280;2023-03-24T02:41:09;4.32;;;1.30;;
8708;SDS011;4391;48.678;9.280;2023-03-24T02:43:44;5.80;;;1.60;;
8708;SDS011;4391;48.678;9.280;2023-03-24T02:46:19;4.18;;;1.42;;
8708;SDS011;4391;48.678;9.280;2023-03-24T02:49:02;6.00;;;1.60;;
8708;SDS011;4391;48.678;9.280;2023-03-24T02:51:36;4.43;;;1.42;;
8708;SDS011;4391;48.678;9.280;2023-03-24T02:54:12;4.05;;;1.27;;
8708;SDS011;4391;48.678;9.280;2023-03-24T02:56:45;4.30;;;1.20;;
8708;SDS011;4391;48.678;9.280;2023-03-24T02:59:18;3.17;;;1.10;;
8708;SDS011;4391;48.678;9.280;2023-03-24T03:01:52;4.75;;;1.25;;
8708;SDS011;4391;48.678;9.280;2023-03-24T03:04:24;4.13;;;1.30;;
8708;SDS011;4391;48.678;9.280;2023-03-24T03:06:57;3.33;;;1.35;;
8708;SDS011;4391;48.678;9.280;2023-03-24T03:09:30;5.47;;;1.67;;
8708;SDS011;4391;48.678;9.280;2023-03-24T03:11:59;3.75;;;1.15;;
8708;SDS011;4391;48.678;9.280;2023-03-24T03:14:30;3.08;;;1.23;;
8708;SDS011;4391;48.678;9.280;2023-03-24T03:17:01;6.05;;;1.50;;
8708;SDS011;4391;48.678;9.280;2023-03-24T03:19:36;3.65;;;1.40;;
8708;SDS011;4391;48.678;9.280;2023-03-24T03:22:07;4.60;;;1.40;;
8708;SDS011;4391;48.678;9.280;2023-03-24T03:24:39;3.42;;;1.17;;
8708;SDS011;4391;48.678;9.280;2023-03-24T03:27:10;4.50;;;1.40;;
8708;SDS011;4391;48.678;9.280;2023-03-24T03:29:43;3.47;;;1.20;;
8708;SDS011;4391;48.678;9.280;2023-03-24T03:32:13;3.72;;;1.33;;
8708;SDS011;4391;48.678;9.280;2023-03-24T03:34:45;3.43;;;1.10;;
8708;SDS011;4391;48.678;9.280;2023-03-24T03:37:19;2.90;;;1.30;;
8708;SDS011;4391;48.678;9.280;2023-03-24T03:39:53;3.20;;;1.08;;
8708;SDS011;4391;48.678;9.280;2023-03-24T03:42:25;3.67;;;1.30;;
8708;SDS011;4391;48.678;9.280;2023-03-24T03:44:52;3.72;;;1.20;;
8708;SDS011;4391;48.678;9.280;2023-03-24T03:47:19;4.20;;;1.50;;
8708;SDS011;4391;48.678;9.280;2023-03-24T03:49:47;5.10;;;1.35;;
8708;SDS011;4391;48.678;9.280;2023-03-24T03:52:14;4.50;;;1.88;;
8708;SDS011;4391;48.678;9.280;2023-03-24T03:54:42;6.03;;;1.77;;
8708;SDS011;4391;48.678;9.280;2023-03-24T03:57:10;4.50;;;1.65;;
8708;SDS011;4391;48.678;9.280;2023-03-24T03:59:40;3.90;;;1.20;;
8708;SDS011;4391;48.678;9.280;2023-03-24T04:02:10;3.50;;;1.30;;
8708;SDS011;4391;48.678;9.280;2023-03-24T04:07:59;3.30;;;1.13;;
8708;SDS011;4391;48.678;9.280;2023-03-24T04:10:35;4.00;;;1.50;;
8708;SDS011;4391;48.678;9.280;2023-03-24T04:13:16;4.60;;;1.63;;
8708;SDS011;4391;48.678;9.280;2023-03-24T04:15:51;5.35;;;1.48;;
8708;SDS011;4391;48.678;9.280;2023-03-24T04:18:25;3.17;;;1.40;;
8708;SDS011;4391;48.678;9.280;2023-03-24T04:21:04;4.55;;;1.40;;
8708;SDS011;4391;48.678;9.280;2023-03-24T04:23:40;3.90;;;1.40;;
8708;SDS011;4391;48.678;9.280;2023-03-24T04:26:14;4.33;;;1.80;;
8708;SDS011;4391;48.678;9.280;2023-03-24T04:28:52;5.10;;;1.45;;
8708;SDS011;4391;48.678;9.280;2023-03-24T04:31:30;3.35;;;1.30;;
8708;SDS011;4391;48.678;9.280;2023-03-24T04:34:02;4.25;;;1.50;;
8708;SDS011;4391;48.678;9.280;2023-03-24T04:36:36;5.50;;;1.30;;
8708;SDS011;4391;48.678;9.280;2023-03-24T04:39:08;6.00;;;1.20;;
8708;SDS011;4391;48.678;9.280;2023-03-24T04:41:38;3.05;;;0.95;;
8708;SDS011;4391;48.678;9.280;2023-03-24T04:44:07;5.68;;;1.20;;
8708;SDS011;4391;48.678;9.280;2023-03-24T04:46:36;3.45;;;1.20;;
8708;SDS011;4391;48.678;9.280;2023-03-24T04:49:05;4.35;;;1.27;;
8708;SDS011;4391;48.678;9.280;2023-03-24T04:51:32;2.87;;;1.10;;
8708;SDS011;4391;48.678;9.280;2023-03-24T04:53:59;3.67;;;1.30;;
8708;SDS011;4391;48.678;9.280;2023-03-24T04:56:33;5.10;;;1.08;;
8708;SDS011;4391;48.678;9.280;2023-03-24T04:59:04;3.33;;;1.30;;
8708;SDS011;4391;48.678;9.280;2023-03-24T05:01:32;3.55;;;1.20;;
8708;SDS011;4391;48.678;9.280;2023-03-24T05:04:02;3.20;;;1.07;;
8708;SDS011;4391;48.678;9.280;2023-03-24T05:06:30;6.70;;;1.30;;
8708;SDS011;4391;48.678;9.280;2023-03-24T05:08:56;3.55;;;1.30;;
8708;SDS011;4391;48.678;9.280;2023-03-24T05:11:23;4.55;;;1.00;;
8708;SDS011;4391;48.678;9.280;2023-03-24T05:13:51;4.13;;;1.10;;
8708;SDS011;4391;48.678;9.280;2023-03-24T05:16:19;4.53;;;1.27;;
8708;SDS011;4391;48.678;9.280;2023-03-24T05:18:46;3.70;;;1.50;;
8708;SDS011;4391;48.678;9.280;2023-03-24T05:21:14;3.42;;;1.30;;
8708;SDS011;4391;48.678;9.280;2023-03-24T05:23:41;3.00;;;1.10;;
8708;SDS011;4391;48.678;9.280;2023-03-24T05:26:08;3.55;;;1.27;;
8708;SDS011;4391;48.678;9.280;2023-03-24T05:28:35;4.20;;;1.40;;
8708;SDS011;4391;48.678;9.280;2023-03-24T05:31:02;4.22;;;1.30;;
8708;SDS011;4391;48.678;9.280;2023-03-24T05:33:29;5.05;;;1.40;;
8708;SDS011;4391;48.678;9.280;2023-03-24T05:35:55;10.30;;;1.60;;
8708;SDS011;4391;48.678;9.280;2023-03-24T05:38:24;8.35;;;1.75;;
8708;SDS011;4391;48.678;9.280;2023-03-24T05:40:51;6.13;;;1.40;;
8708;SDS011;4391;48.678;9.280;2023-03-24T05:43:20;4.68;;;1.60;;
8708;SDS011;4391;48.678;9.280;2023-03-24T05:45:47;4.15;;;1.60;;
8708;SDS011;4391;48.678;9.280;2023-03-24T05:48:14;4.10;;;1.60;;
8708;SDS011;4391;48.678;9.280;2023-03-24T05:50:41;5.65;;;1.95;;
8708;SDS011;4391;48.678;9.280;2023-03-24T05:53:08;5.93;;;2.10;;
8708;SDS011;4391;48.678;9.280;2023-03-24T05:55:36;4.03;;;1.60;;
8708;SDS011;4391;48.678;9.280;2023-03-24T05:58:04;3.78;;;1.58;;
8708;SDS011;4391;48.678;9.280;2023-03-24T06:00:31;4.57;;;1.65;;
8708;SDS011;4391;48.678;9.280;2023-03-24T06:02:58;6.28;;;2.13;;
8708;SDS011;4391;48.678;9.280;2023-03-24T06:05:25;4.00;;;1.70;;
8708;SDS011;4391;48.678;9.280;2023-03-24T06:07:52;4.15;;;1.80;;
8708;SDS011;4391;48.678;9.280;2023-03-24T06:10:23;4.00;;;1.50;;
8708;SDS011;4391;48.678;9.280;2023-03-24T06:12:51;4.10;;;1.92;;
8708;SDS011;4391;48.678;9.280;2023-03-24T06:15:18;4.80;;;1.80;;
8708;SDS011;4391;48.678;9.280;2023-03-24T06:17:46;4.53;;;1.60;;
8708;SDS011;4391;48.678;9.280;2023-03-24T06:20:14;7.10;;;2.00;;
8708;SDS011;4391;48.678;9.280;2023-03-24T06:22:43;5.38;;;1.77;;
8708;SDS011;4391;48.678;9.280;2023-03-24T06:25:11;4.95;;;2.10;;
8708;SDS011;4391;48.678;9.280;2023-03-24T06:27:41;6.10;;;1.95;;
8708;SDS011;4391;48.678;9.280;2023-03-24T06:30:12;5.07;;;2.00;;
8708;SDS011;4391;48.678;9.280;2023-03-24T06:32:40;4.93;;;1.75;;
8708;SDS011;4391;48.678;9.280;2023-03-24T06:35:10;4.30;;;1.80;;
8708;SDS011;4391;48.678;9.280;2023-03-24T06:37:38;3.55;;;1.58;;
8708;SDS011;4391;48.678;9.280;2023-03-24T06:40:05;4.80;;;2.00;;
8708;SDS011;4391;48.678;9.280;2023-03-24T06:42:34;4.63;;;1.77;;
8708;SDS011;4391;48.678;9.280;2023-03-24T06:45:01;3.90;;;1.63;;
8708;SDS011;4391;48.678;9.280;2023-03-24T06:47:30;4.45;;;1.80;;
8708;SDS011;4391;48.678;9.280;2023-03-24T06:49:59;6.32;;;1.90;;
8708;SDS011;4391;48.678;9.280;2023-03-24T06:52:26;5.78;;;1.98;;
8708;SDS011;4391;48.678;9.280;2023-03-24T06:54:53;4.33;;;2.00;;
8708;SDS011;4391;48.678;9.280;2023-03-24T06:57:21;5.82;;;1.95;;
8708;SDS011;4391;48.678;9.280;2023-03-24T06:59:48;5.00;;;1.88;;
8708;SDS011;4391;48.678;9.280;2023-03-24T07:02:15;5.38;;;1.88;;
8708;SDS011;4391;48.678;9.280;2023-03-24T07:04:43;5.65;;;1.50;;
8708;SDS011;4391;48.678;9.280;2023-03-24T07:07:10;4.80;;;1.70;;
8708;SDS011;4391;48.678;9.280;2023-03-24T07:09:37;4.70;;;1.60;;
8708;SDS011;4391;48.678;9.280;2023-03-24T07:12:04;5.50;;;1.95;;
8708;SDS011;4391;48.678;9.280;2023-03-24T07:14:31;5.90;;;1.80;;
8708;SDS011;4391;48.678;9.280;2023-03-24T07:16:58;5.00;;;1.70;;
8708;SDS011;4391;48.678;9.280;2023-03-24T07:19:26;5.63;;;2.00;;
8708;SDS011;4391;48.678;9.280;2023-03-24T07:21:54;8.95;;;1.92;;
8708;SDS011;4391;48.678;9.280;2023-03-24T07:24:21;5.22;;;2.00;;
8708;SDS011;4391;48.678;9.280;2023-03-24T07:26:48;4.13;;;1.90;;
8708;SDS011;4391;48.678;9.280;2023-03-24T07:29:14;4.75;;;2.17;;
8708;SDS011;4391;48.678;9.280;2023-03-24T07:31:41;7.47;;;2.27;;
8708;SDS011;4391;48.678;9.280;2023-03-24T07:34:08;6.55;;;2.20;;
8708;SDS011;4391;48.678;9.280;2023-03-24T07:36:35;5.80;;;2.33;;
8708;SDS011;4391;48.678;9.280;2023-03-24T07:39:03;6.93;;;2.20;;
8708;SDS011;4391;48.678;9.280;2023-03-24T07:41:30;6.63;;;2.08;;
8708;SDS011;4391;48.678;9.280;2023-03-24T07:43:58;6.03;;;2.77;;
8708;SDS011;4391;48.678;9.280;2023-03-24T07:46:25;6.95;;;2.88;;
8708;SDS011;4391;48.678;9.280;2023-03-24T07:48:52;11.90;;;2.53;;
8708;SDS011;4391;48.678;9.280;2023-03-24T07:51:18;6.40;;;2.40;;
8708;SDS011;4391;48.678;9.280;2023-03-24T07:53:46;6.47;;;2.67;;
8708;SDS011;4391;48.678;9.280;2023-03-24T07:56:14;7.00;;;2.70;;
8708;SDS011;4391;48.678;9.280;2023-03-24T07:58:41;8.05;;;2.42;;
8708;SDS011;4391;48.678;9.280;2023-03-24T08:01:08;7.45;;;3.10;;
8708;SDS011;4391;48.678;9.280;2023-03-24T08:03:35;7.30;;;2.60;;
8708;SDS011;4391;48.678;9.280;2023-03-24T08:06:02;5.85;;;2.45;;
8708;SDS011;4391;48.678;9.280;2023-03-24T08:08:29;8.37;;;2.50;;
8708;SDS011;4391;48.678;9.280;2023-03-24T08:10:56;5.97;;;2.85;;
8708;SDS011;4391;48.678;9.280;2023-03-24T08:13:25;7.00;;;2.60;;
8708;SDS011;4391;48.678;9.280;2023-03-24T08:15:52;7.70;;;2.60;;
8708;SDS011;4391;48.678;9.280;2023-03-24T08:18:18;6.45;;;2.58;;
8708;SDS011;4391;48.678;9.280;2023-03-24T08:20:46;8.07;;;3.37;;
8708;SDS011;4391;48.678;9.280;2023-03-24T08:23:14;7.53;;;2.75;;
8708;SDS011;4391;48.678;9.280;2023-03-24T08:25:41;7.68;;;3.08;;
8708;SDS011;4391;48.678;9.280;2023-03-24T08:28:09;10.38;;;3.70;;
8708;SDS011;4391;48.678;9.280;2023-03-24T08:30:37;10.77;;;3.33;;
8708;SDS011;4391;48.678;9.280;2023-03-24T08:33:08;6.83;;;3.20;;
8708;SDS011;4391;48.678;9.280;2023-03-24T08:35:37;5.72;;;2.75;;
8708;SDS011;4391;48.678;9.280;2023-03-24T08:38:05;9.73;;;2.03;;
8708;SDS011;4391;48.678;9.280;2023-03-24T08:40:33;6.22;;;2.42;;
8708;SDS011;4391;48.678;9.280;2023-03-24T08:43:01;5.45;;;2.50;;
8708;SDS011;4391;48.678;9.280;2023-03-24T08:45:32;6.20;;;2.47;;
8708;SDS011;4391;48.678;9.280;2023-03-24T08:48:02;5.97;;;2.85;;
8708;SDS011;4391;48.678;9.280;2023-03-24T08:50:32;4.63;;;2.53;;
8708;SDS011;4391;48.678;9.280;2023-03-24T08:53:01;4.20;;;2.17;;
8708;SDS011;4391;48.678;9.280;2023-03-24T08:55:28;7.88;;;2.70;;
8708;SDS011;4391;48.678;9.280;2023-03-24T08:57:55;7.43;;;2.73;;
8708;SDS011;4391;48.678;9.280;2023-03-24T09:00:22;6.43;;;3.13;;
8708;SDS011;4391;48.678;9.280;2023-03-24T09:02:50;7.10;;;3.22;;
8708;SDS011;4391;48.678;9.280;2023-03-24T09:05:20;5.97;;;2.72;;
8708;SDS011;4391;48.678;9.280;2023-03-24T09:07:48;6.18;;;2.72;;
8708;SDS011;4391;48.678;9.280;2023-03-24T09:10:16;5.40;;;2.90;;
8708;SDS011;4391;48.678;9.280;2023-03-24T09:12:43;5.95;;;2.70;;
8708;SDS011;4391;48.678;9.280;2023-03-24T09:15:11;6.40;;;2.75;;
8708;SDS011;4391;48.678;9.280;2023-03-24T09:17:39;6.30;;;2.53;;
8708;SDS011;4391;48.678;9.280;2023-03-24T09:20:07;7.40;;;2.70;;
8708;SDS011;4391;48.678;9.280;2023-03-24T09:22:38;7.80;;;2.67;;
8708;SDS011;4391;48.678;9.280;2023-03-24T09:25:06;5.63;;;2.65;;
8708;SDS011;4391;48.678;9.280;2023-03-24T09:27:34;5.53;;;2.50;;
8708;SDS011;4391;48.678;9.280;2023-03-24T09:30:01;5.82;;;2.80;;
8708;SDS011;4391;48.678;9.280;2023-03-24T09:32:28;7.05;;;2.70;;
8708;SDS011;4391;48.678;9.280;2023-03-24T09:34:55;7.53;;;2.57;;
8708;SDS011;4391;48.678;9.280;2023-03-24T09:37:22;6.85;;;2.53;;
8708;SDS011;4391;48.678;9.280;2023-03-24T09:39:50;5.43;;;2.40;;
8708;SDS011;4391;48.678;9.280;2023-03-24T09:42:19;5.15;;;2.28;;
8708;SDS011;4391;48.678;9.280;2023-03-24T09:44:50;4.78;;;1.77;;
8708;SDS011;4391;48.678;9.280;2023-03-24T09:47:23;6.03;;;1.90;;
8708;SDS011;4391;48.678;9.280;2023-03-24T09:49:54;4.20;;;1.83;;
8708;SDS011;4391;48.678;9.280;2023-03-24T09:52:26;5.60;;;1.80;;
8708;SDS011;4391;48.678;9.280;2023-03-24T09:55:00;4.00;;;1.73;;
8708;SDS011;4391;48.678;9.280;2023-03-24T09:57:29;4.45;;;1.45;;
8708;SDS011;4391;48.678;9.280;2023-03-24T10:00:04;3.83;;;1.50;;
8708;SDS011;4391;48.678;9.280;2023-03-24T10:02:41;3.90;;;1.67;;
8708;SDS011;4391;48.678;9.280;2023-03-24T10:05:11;4.13;;;1.38;;
8708;SDS011;4391;48.678;9.280;2023-03-24T10:07:38;3.45;;;1.38;;
8708;SDS011;4391;48.678;9.280;2023-03-24T10:10:16;4.43;;;1.30;;
8708;SDS011;4391;48.678;9.280;2023-03-24T10:12:49;5.50;;;1.47;;
8708;SDS011;4391;48.678;9.280;2023-03-24T10:15:19;4.57;;;1.42;;
8708;SDS011;4391;48.678;9.280;2023-03-24T10:17:53;3.60;;;1.50;;
8708;SDS011;4391;48.678;9.280;2023-03-24T10:20:27;3.20;;;1.20;;
8708;SDS011;4391;48.678;9.280;2023-03-24T10:23:02;2.85;;;1.10;;
8708;SDS011;4391;48.678;9.280;2023-03-24T10:25:44;3.23;;;1.10;;
8708;SDS011;4391;48.678;9.280;2023-03-24T10:28:17;3.00;;;1.10;;
8708;SDS011;4391;48.678;9.280;2023-03-24T10:30:46;2.55;;;0.95;;
8708;SDS011;4391;48.678;9.280;2023-03-24T10:33:15;3.67;;;1.10;;
8708;SDS011;4391;48.678;9.280;2023-03-24T10:35:44;2.42;;;1.00;;
8708;SDS011;4391;48.678;9.280;2023-03-24T10:38:18;2.70;;;0.80;;
8708;SDS011;4391;48.678;9.280;2023-03-24T10:40:47;2.75;;;1.10;;
8708;SDS011;4391;48.678;9.280;2023-03-24T10:43:15;2.30;;;0.82;;
8708;SDS011;4391;48.678;9.280;2023-03-24T10:45:44;3.83;;;0.95;;
8708;SDS011;4391;48.678;9.280;2023-03-24T10:48:15;3.42;;;1.13;;
8708;SDS011;4391;48.678;9.280;2023-03-24T10:51:09;2.60;;;1.00;;
8708;SDS011;4391;48.678;9.280;2023-03-24T10:53:40;2.33;;;0.80;;
8708;SDS011;4391;48.678;9.280;2023-03-24T10:56:09;2.92;;;1.00;;
8708;SDS011;4391;48.678;9.280;2023-03-24T10:58:41;5.45;;;1.10;;
8708;SDS011;4391;48.678;9.280;2023-03-24T11:01:17;2.95;;;0.98;;
8708;SDS011;4391;48.678;9.280;2023-03-24T11:03:48;4.60;;;1.20;;
8708;SDS011;4391;48.678;9.280;2023-03-24T11:06:17;3.03;;;1.00;;
8708;SDS011;4391;48.678;9.280;2023-03-24T11:08:46;1.80;;;0.70;;
8708;SDS011;4391;48.678;9.280;2023-03-24T11:11:33;2.35;;;0.70;;
8708;SDS011;4391;48.678;9.280;2023-03-24T11:14:01;1.83;;;0.70;;
8708;SDS011;4391;48.678;9.280;2023-03-24T11:16:29;2.57;;;0.90;;
8708;SDS011;4391;48.678;9.280;2023-03-24T11:18:58;1.85;;;0.60;;
8708;SDS011;4391;48.678;9.280;2023-03-24T11:21:26;1.65;;;0.60;;
8708;SDS011;4391;48.678;9.280;2023-03-24T11:23:56;1.35;;;0.60;;
8708;SDS011;4391;48.678;9.280;2023-03-24T11:26:27;1.80;;;0.60;;
8708;SDS011;4391;48.678;9.280;2023-03-24T11:28:57;2.10;;;0.50;;
8708;SDS011;4391;48.678;9.280;2023-03-24T11:31:27;2.42;;;1.00;;
8708;SDS011;4391;48.678;9.280;2023-03-24T11:33:56;1.55;;;0.63;;
8708;SDS011;4391;48.678;9.280;2023-03-24T11:36:35;3.05;;;0.85;;
8708;SDS011;4391;48.678;9.280;2023-03-24T11:39:18;2.10;;;0.75;;
8708;SDS011;4391;48.678;9.280;2023-03-24T11:41:50;2.70;;;0.67;;
8708;SDS011;4391;48.678;9.280;2023-03-24T11:44:25;3.08;;;0.60;;
8708;SDS011;4391;48.678;9.280;2023-03-24T11:46:56;1.75;;;0.60;;
8708;SDS011;4391;48.678;9.280;2023-03-24T11:49:25;2.00;;;0.50;;
8708;SDS011;4391;48.678;9.280;2023-03-24T11:51:57;1.88;;;0.70;;
8708;SDS011;4391;48.678;9.280;2023-03-24T11:54:26;2.27;;;0.70;;
8708;SDS011;4391;48.678;9.280;2023-03-24T11:56:58;1.33;;;0.40;;
8708;SDS011;4391;48.678;9.280;2023-03-24T11:59:33;2.25;;;0.55;;
8708;SDS011;4391;48.678;9.280;2023-03-24T12:02:15;1.08;;;0.50;;
8708;SDS011;4391;48.678;9.280;2023-03-24T12:10:43;1.67;;;0.45;;
8708;SDS011;4391;48.678;9.280;2023-03-24T12:13:18;1.95;;;0.40;;
8708;SDS011;4391;48.678;9.280;2023-03-24T12:15:55;1.85;;;0.50;;
8708;SDS011;4391;48.678;9.280;2023-03-24T12:18:33;2.08;;;0.47;;
8708;SDS011;4391;48.678;9.280;2023-03-24T12:21:06;1.37;;;0.57;;
8708;SDS011;4391;48.678;9.280;2023-03-24T12:23:51;1.63;;;0.60;;
8708;SDS011;4391;48.678;9.280;2023-03-24T12:26:23;3.50;;;0.70;;
8708;SDS011;4391;48.678;9.280;2023-03-24T12:32:06;1.15;;;0.43;;
8708;SDS011;4391;48.678;9.280;2023-03-24T12:37:41;1.35;;;0.50;;
8708;SDS011;4391;48.678;9.280;2023-03-24T12:40:36;1.55;;;0.60;;
8708;SDS011;4391;48.678;9.280;2023-03-24T12:43:22;1.45;;;0.50;;
8708;SDS011;4391;48.678;9.280;2023-03-24T12:46:00;1.58;;;0.40;;
8708;SDS011;4391;48.678;9.280;2023-03-24T12:51:31;1.00;;;0.32;;
8708;SDS011;4391;48.678;9.280;2023-03-24T12:54:11;1.20;;;0.40;;
8708;SDS011;4391;48.678;9.280;2023-03-24T12:56:50;1.48;;;0.60;;
8708;SDS011;4391;48.678;9.280;2023-03-24T12:59:21;2.15;;;0.60;;
8708;SDS011;4391;48.678;9.280;2023-03-24T13:01:54;1.17;;;0.50;;
8708;SDS011;4391;48.678;9.280;2023-03-24T13:04:30;1.33;;;0.50;;
8708;SDS011;4391;48.678;9.280;2023-03-24T13:07:00;1.20;;;0.40;;
8708;SDS011;4391;48.678;9.280;2023-03-24T13:09:33;1.80;;;0.45;;
8708;SDS011;4391;48.678;9.280;2023-03-24T13:12:09;1.45;;;0.50;;
8708;SDS011;4391;48.678;9.280;2023-03-24T13:14:42;1.60;;;0.40;;
8708;SDS011;4391;48.678;9.280;2023-03-24T13:17:16;0.88;;;0.35;;
8708;SDS011;4391;48.678;9.280;2023-03-24T13:19:48;1.10;;;0.40;;
8708;SDS011;4391;48.678;9.280;2023-03-24T13:22:19;0.70;;;0.30;;
8708;SDS011;4391;48.678;9.280;2023-03-24T13:24:50;1.35;;;0.57;;
8708;SDS011;4391;48.678;9.280;2023-03-24T13:27:19;2.83;;;0.40;;
8708;SDS011;4391;48.678;9.280;2023-03-24T13:32:48;1.08;;;0.40;;
8708;SDS011;4391;48.678;9.280;2023-03-24T13:35:23;0.90;;;0.40;;
8708;SDS011;4391;48.678;9.280;2023-03-24T13:38:03;0.95;;;0.40;;
8708;SDS011;4391;48.678;9.280;2023-03-24T13:40:36;1.63;;;0.40;;
8708;SDS011;4391;48.678;9.280;2023-03-24T13:43:06;0.60;;;0.20;;
8708;SDS011;4391;48.678;9.280;2023-03-24T13:45:39;1.40;;;0.50;;
8708;SDS011;4391;48.678;9.280;2023-03-24T13:48:18;1.00;;;0.45;;
8708;SDS011;4391;48.678;9.280;2023-03-24T13:50:54;1.77;;;0.60;;
8708;SDS011;4391;48.678;9.280;2023-03-24T13:53:30;1.83;;;0.70;;
8708;SDS011;4391;48.678;9.280;2023-03-24T13:56:01;2.42;;;0.65;;
8708;SDS011;4391;48.678;9.280;2023-03-24T14:01:33;2.17;;;0.70;;
8708;SDS011;4391;48.678;9.280;2023-03-24T14:13:04;3.67;;;0.40;;
8708;SDS011;4391;48.678;9.280;2023-03-24T14:15:59;1.90;;;0.50;;
8708;SDS011;4391;48.678;9.280;2023-03-24T14:19:07;1.58;;;0.60;;
8708;SDS011;4391;48.678;9.280;2023-03-24T14:21:44;1.03;;;0.40;;
8708;SDS011;4391;48.678;9.280;2023-03-24T14:24:32;1.83;;;0.50;;
8708;SDS011;4391;48.678;9.280;2023-03-24T14:27:03;1.63;;;0.50;;
8708;SDS011;4391;48.678;9.280;2023-03-24T14:29:48;4.68;;;0.40;;
8708;SDS011;4391;48.678;9.280;2023-03-24T14:32:16;1.38;;;0.40;;
8708;SDS011;4391;48.678;9.280;2023-03-24T14:34:50;1.57;;;0.40;;
8708;SDS011;4391;48.678;9.280;2023-03-24T14:37:21;0.98;;;0.30;;
8708;SDS011;4391;48.678;9.280;2023-03-24T14:39:50;0.93;;;0.40;;
8708;SDS011;4391;48.678;9.280;2023-03-24T14:42:27;1.50;;;0.50;;
8708;SDS011;4391;48.678;9.280;2023-03-24T14:45:40;2.67;;;0.43;;
8708;SDS011;4391;48.678;9.280;2023-03-24T14:48:28;0.90;;;0.40;;
8708;SDS011;4391;48.678;9.280;2023-03-24T14:51:00;1.08;;;0.30;;
8708;SDS011;4391;48.678;9.280;2023-03-24T14:53:33;0.50;;;0.30;;
8708;SDS011;4391;48.678;9.280;2023-03-24T14:56:05;0.90;;;0.30;;
8708;SDS011;4391;48.678;9.280;2023-03-24T14:58:38;0.68;;;0.30;;
8708;SDS011;4391;48.678;9.280;2023-03-24T15:01:08;0.80;;;0.40;;
8708;SDS011;4391;48.678;9.280;2023-03-24T15:03:37;1.17;;;0.40;;
8708;SDS011;4391;48.678;9.280;2023-03-24T15:06:13;1.38;;;0.40;;
8708;SDS011;4391;48.678;9.280;2023-03-24T15:08:43;1.15;;;0.52;;
8708;SDS011;4391;48.678;9.280;2023-03-24T15:11:15;1.20;;;0.40;;
8708;SDS011;4391;48.678;9.280;2023-03-24T15:13:46;1.43;;;0.50;;
8708;SDS011;4391;48.678;9.280;2023-03-24T15:16:19;1.48;;;0.50;;
8708;SDS011;4391;48.678;9.280;2023-03-24T15:18:48;1.25;;;0.50;;
8708;SDS011;4391;48.678;9.280;2023-03-24T15:21:21;1.73;;;0.50;;
8708;SDS011;4391;48.678;9.280;2023-03-24T15:23:50;2.22;;;0.60;;
8708;SDS011;4391;48.678;9.280;2023-03-24T15:26:19;6.17;;;0.60;;
8708;SDS011;4391;48.678;9.280;2023-03-24T15:28:52;2.63;;;0.60;;
8708;SDS011;4391;48.678;9.280;2023-03-24T15:31:21;2.80;;;0.60;;
8708;SDS011;4391;48.678;9.280;2023-03-24T15:33:49;2.00;;;0.50;;
8708;SDS011;4391;48.678;9.280;2023-03-24T15:36:19;2.20;;;0.70;;
8708;SDS011;4391;48.678;9.280;2023-03-24T15:38:48;1.50;;;0.60;;
8708;SDS011;4391;48.678;9.280;2023-03-24T15:41:19;1.35;;;0.60;;
8708;SDS011;4391;48.678;9.280;2023-03-24T15:43:49;1.77;;;0.60;;
8708;SDS011;4391;48.678;9.280;2023-03-24T15:46:21;2.13;;;0.50;;
8708;SDS011;4391;48.678;9.280;2023-03-24T15:48:51;1.35;;;0.50;;
8708;SDS011;4391;48.678;9.280;2023-03-24T15:51:18;1.40;;;0.50;;
8708;SDS011;4391;48.678;9.280;2023-03-24T15:54:14;1.65;;;0.50;;
8708;SDS011;4391;48.678;9.280;2023-03-24T15:56:59;2.95;;;1.15;;
8708;SDS011;4391;48.678;9.280;2023-03-24T15:59:31;1.48;;;0.40;;
8708;SDS011;4391;48.678;9.280;2023-03-24T16:02:00;2.95;;;0.63;;
8708;SDS011;4391;48.678;9.280;2023-03-24T16:04:30;2.13;;;0.60;;
8708;SDS011;4391;48.678;9.280;2023-03-24T16:06:56;2.60;;;0.68;;
8708;SDS011;4391;48.678;9.280;2023-03-24T16:09:23;2.13;;;0.55;;
8708;SDS011;4391;48.678;9.280;2023-03-24T16:12:04;2.30;;;0.70;;
8708;SDS011;4391;48.678;9.280;2023-03-24T16:14:35;1.40;;;0.70;;
8708;SDS011;4391;48.678;9.280;2023-03-24T16:17:02;1.90;;;0.70;;
8708;SDS011;4391;48.678;9.280;2023-03-24T16:19:29;1.88;;;0.70;;